Peretola Airport

LIRQ · 托斯卡纳, 意大利

罗盘
风向 的 风向 的 风向 到 风向 050° Peretola Airport 5/23
风: 10 kt, 3 beaufort

10 kt

改变
0 ft 2.000 4.000 6.000 8.000 10.000
Cloud Cloud
FEW 8.000
METAR LIRQ 281150Z 05010KT 020V080 9999 FEW080 17/10 Q1012

METAR Peretola Airport - LIRQ/FLR

Peretola Airport是,意大利中的中型机场。 该机场位于纬度43,81000和经度11,20510。 该机场有一条跑道: 5/23. 本场的ICAO机场代码为LIRQ。 该机场的IATA代码为FLR。 机场在Milano FIR中。

该航空气象观测是针对Peretola Airport在2024年2月28日 12:50, 当地时间进行的。

机场观察

风向为050°,速度为10 kt。 风向在020°和080°之间变化。

可见度为10 km 或者更多。

有几云在8.000 ft的高度。 没有观察到天花板。

温度和风寒是17 °C。 露点为10 °C,相对湿度为64%。 海平面上的气压为1012 hPa (QNH)。

白天

今天,太阳从06:54升起,在18:01降落。 这适用于Peretola Airport,世界夏令时可能有所不同。 当地时间与世界标准时间之间的时差为+1 小时。 当前,没有夏令时有效。

公司介绍

我们没有关于这个机场的公司信息。

体会

到Vliegles.nl去找飞行课程,跳伞和其他飞行体验。 浏览页面,了解Peretola Airport附近所有可用的活动。 你也可以使用搜索功能来寻找你所在地附近的特定飞行课程、跳伞或其他飞行体验。

跑道

Id 标题 侧风 逆风 侧风 %
5/23 048°-228° 10 kt 3 %

逆风成分最大的方向会被突出显示,并用于横风计算。 这并不一定意味着这个方向在使用。

乌云

8.000 ft FEW 几云

温度 & 天气

温度 17 °C
露点 10 °C
相对湿度 64%
Kp-index 1 (0-9)

白天

日出
06:54
中午
12:27
日落
18:01 (4:31)

小工具

你想在你的网站上有一个关于Peretola Airport的当前航空天气(METAR)的小部件吗?

显示HTML代码
?>